Time;durP1;ratioP1;P1;durP2;ratioP2;P2;SDS_P1;SDS_P2;PMS_P1;PMS_P2;Temp;Humidity;BMP_temperature;BMP_pressure;BME280_temperature;BME280_humidity;BME280_pressure;Samples;Min_cycle;Max_cycle;Signal;HPM_P1;HPM_P2
2020/12/02 00:01:48;;;;;;;10.43;6.20;;;;;;;4.75;100.00;102599.69;1706039;82;936711;-81
2020/12/02 00:04:19;;;;;;;11.00;6.50;;;;;;;5.01;100.00;102597.05;1695083;82;936895;-81
2020/12/02 00:06:51;;;;;;;9.93;6.30;;;;;;;5.28;100.00;102604.89;1706489;82;936870;-81
2020/12/02 00:09:23;;;;;;;10.55;6.35;;;;;;;5.25;100.00;102592.91;1667440;84;934877;-81
2020/12/02 00:11:54;;;;;;;9.37;5.87;;;;;;;5.31;100.00;102598.95;1678160;84;936815;-81
2020/12/02 00:14:26;;;;;;;9.70;5.33;;;;;;;5.14;100.00;102594.88;1694352;82;934725;-81
2020/12/02 00:16:56;;;;;;;12.23;6.07;;;;;;;5.08;100.00;102589.36;1706219;82;935037;-81
2020/12/02 00:19:27;;;;;;;12.05;6.08;;;;;;;5.05;100.00;102587.84;1694993;82;937226;-81
2020/12/02 00:22:02;;;;;;;9.40;5.83;;;;;;;5.16;100.00;102578.16;1677922;84;937257;-81
2020/12/02 00:24:34;;;;;;;13.50;6.43;;;;;;;5.23;100.00;102579.01;1694989;82;934535;-81
2020/12/02 00:27:07;;;;;;;7.97;5.40;;;;;;;5.28;100.00;102572.35;1706979;82;934676;-81
2020/12/02 00:29:37;;;;;;;9.47;4.93;;;;;;;5.28;100.00;102576.48;1694811;82;934518;-81
2020/12/02 00:32:07;;;;;;;10.73;5.60;;;;;;;5.34;100.00;102566.02;1706074;82;932564;-80
2020/12/02 00:34:37;;;;;;;10.60;5.50;;;;;;;5.29;100.00;102566.64;1694734;82;936631;-80
2020/12/02 00:37:07;;;;;;;6.17;4.40;;;;;;;5.32;100.00;102554.34;1706129;82;934780;-81
2020/12/02 00:39:37;;;;;;;8.03;4.78;;;;;;;5.29;100.00;102561.13;1666999;84;934804;-80
2020/12/02 00:42:07;;;;;;;7.50;5.00;;;;;;;5.23;100.00;102550.08;1706063;82;932697;-80
2020/12/02 00:44:37;;;;;;;11.73;5.80;;;;;;;5.06;100.00;102556.50;1694822;82;934671;-80
2020/12/02 00:47:11;;;;;;;10.73;5.57;;;;;;;4.98;100.00;102556.17;1706026;82;934712;-81
2020/12/02 00:49:41;;;;;;;9.73;5.73;;;;;;;4.90;100.00;102550.84;1706135;82;936635;-81
2020/12/02 00:52:12;;;;;;;12.90;5.73;;;;;;;4.78;100.00;102549.74;1706136;82;932580;-81
2020/12/02 00:54:42;;;;;;;10.83;5.27;;;;;;;4.95;100.00;102551.08;1706178;82;936599;-81
2020/12/02 00:57:14;;;;;;;11.73;5.90;;;;;;;5.07;100.00;102551.32;1706014;82;934688;-80
2020/12/02 00:59:46;;;;;;;15.03;6.30;;;;;;;4.97;100.00;102557.73;1705814;82;936185;-81
2020/12/02 01:02:19;;;;;;;9.33;5.60;;;;;;;5.07;100.00;102564.24;1697008;82;936962;-80
2020/12/02 01:04:52;;;;;;;12.73;5.60;;;;;;;4.92;100.00;102545.96;1702413;82;934566;-81
2020/12/02 01:07:23;;;;;;;9.93;5.33;;;;;;;4.97;100.00;102556.36;1694885;82;936673;-80
2020/12/02 01:09:53;;;;;;;10.27;5.90;;;;;;;4.81;100.00;102555.36;1677721;84;934635;-81
2020/12/02 01:12:23;;;;;;;13.00;6.33;;;;;;;4.74;100.00;102551.21;1695094;82;936752;-81
2020/12/02 01:14:53;;;;;;;10.97;5.77;;;;;;;4.88;100.00;102548.81;1706133;82;936745;-80
2020/12/02 01:17:23;;;;;;;12.82;5.70;;;;;;;5.00;100.00;102544.95;1694778;82;936774;-80
2020/12/02 01:19:53;;;;;;;13.03;5.70;;;;;;;4.76;100.00;102552.36;1705957;82;935621;-81
2020/12/02 01:22:26;;;;;;;11.17;5.93;;;;;;;4.70;100.00;102540.81;1694994;82;936608;-81
2020/12/02 01:25:00;;;;;;;10.70;5.77;;;;;;;4.70;100.00;102546.32;1706091;82;936722;-81
2020/12/02 01:27:33;;;;;;;9.70;5.60;;;;;;;4.85;100.00;102538.74;1694913;82;936600;-81
2020/12/02 01:30:04;;;;;;;10.63;6.17;;;;;;;4.79;100.00;102535.45;1678110;84;932760;-80
2020/12/02 01:32:35;;;;;;;8.63;6.03;;;;;;;4.64;100.00;102540.25;1694976;82;936520;-80
2020/12/02 01:35:06;;;;;;;10.83;6.47;;;;;;;4.79;100.00;102535.45;1706388;82;932690;-81
2020/12/02 01:37:38;;;;;;;11.47;6.37;;;;;;;4.79;100.00;102537.66;1694574;82;936773;-81
2020/12/02 01:40:18;;;;;;;10.03;5.30;;;;;;;5.02;100.00;102535.94;1706071;82;934735;-81
2020/12/02 01:42:51;;;;;;;11.37;5.77;;;;;;;4.82;100.00;102533.66;1707227;82;937024;-81
2020/12/02 01:45:24;;;;;;;9.68;5.87;;;;;;;4.82;100.00;102522.13;1694893;82;936577;-80
2020/12/02 01:48:01;;;;;;;13.17;5.97;;;;;;;4.76;100.00;102527.59;1705982;82;934530;-80
2020/12/02 01:50:36;;;;;;;9.53;6.12;;;;;;;4.63;100.00;102521.50;1694643;82;936648;-80
2020/12/02 01:53:11;;;;;;;11.43;6.37;;;;;;;4.55;100.00;102519.78;1706147;82;932952;-80
2020/12/02 01:55:45;;;;;;;11.23;6.53;;;;;;;4.68;100.00;102520.89;1705937;82;936631;-81
2020/12/02 01:58:19;;;;;;;11.40;6.00;;;;;;;4.74;100.00;102520.94;1706140;82;934820;-80
2020/12/02 02:00:54;;;;;;;9.70;6.37;;;;;;;4.80;100.00;102521.98;1705954;82;936645;-80
2020/12/02 02:03:26;;;;;;;10.48;5.95;;;;;;;4.74;100.00;102515.95;1694793;82;934678;-80
2020/12/02 02:05:59;;;;;;;11.23;6.17;;;;;;;4.70;100.00;102518.80;1706143;82;936739;-81
2020/12/02 02:08:31;;;;;;;9.67;6.07;;;;;;;4.55;100.00;102512.91;1695229;82;936587;-80
2020/12/02 02:11:04;;;;;;;9.93;5.60;;;;;;;4.57;100.00;102505.30;1705935;82;932614;-80
2020/12/02 02:13:56;;;;;;;9.65;6.25;;;;;;;4.47;100.00;102507.58;1695301;82;934663;-80
2020/12/02 02:16:29;;;;;;;9.78;5.50;;;;;;;4.57;100.00;102509.95;1694714;82;934469;-80
2020/12/02 02:18:59;;;;;;;11.50;5.60;;;;;;;4.49;100.00;102512.33;1705989;82;934639;-80
2020/12/02 02:21:33;;;;;;;8.40;5.70;;;;;;;4.51;100.00;102509.39;1695423;82;936888;-80
2020/12/02 02:24:04;;;;;;;9.30;5.63;;;;;;;4.43;100.00;102509.04;1706167;82;932736;-80
2020/12/02 02:26:39;;;;;;;8.60;5.58;;;;;;;4.41;100.00;102511.13;1694994;82;934564;-80
2020/12/02 02:29:13;;;;;;;9.47;5.70;;;;;;;4.38;100.00;102501.92;1706031;82;932651;-80
2020/12/02 02:31:49;;;;;;;10.00;5.40;;;;;;;4.43;100.00;102499.41;1677823;84;934585;-80
2020/12/02 02:34:20;;;;;;;10.77;6.77;;;;;;;4.45;100.00;102494.53;1695195;82;936826;-80
2020/12/02 02:36:52;;;;;;;11.43;6.07;;;;;;;4.67;100.00;102491.66;1705474;82;936742;-80
2020/12/02 02:39:22;;;;;;;10.43;5.47;;;;;;;4.61;100.00;102485.62;1666827;84;936604;-79
2020/12/02 02:41:59;;;;;;;12.37;6.00;;;;;;;4.70;100.00;102490.75;1706083;82;936702;-80
2020/12/02 02:44:29;;;;;;;11.03;5.67;;;;;;;4.43;100.00;102488.41;1694860;82;936544;-80
2020/12/02 02:46:59;;;;;;;8.73;5.80;;;;;;;4.32;100.00;102482.64;1706010;82;936550;-80
2020/12/02 02:49:29;;;;;;;7.87;5.87;;;;;;;4.38;100.00;102484.03;1695032;82;934481;-80
2020/12/02 02:51:59;;;;;;;10.90;6.97;;;;;;;4.47;100.00;102475.94;1705912;82;934828;-80
2020/12/02 02:54:29;;;;;;;14.18;6.70;;;;;;;4.54;100.00;102481.45;1694725;82;936675;-80
2020/12/02 02:56:59;;;;;;;11.45;6.12;;;;;;;4.37;100.00;102480.10;1678119;84;936648;-81
2020/12/02 02:59:29;;;;;;;9.85;5.95;;;;;;;4.30;100.00;102477.34;1694946;82;936763;-80
2020/12/02 03:02:00;;;;;;;11.80;6.37;;;;;;;4.31;100.00;102480.94;1705888;82;934646;-81
2020/12/02 03:04:29;;;;;;;11.78;6.45;;;;;;;4.35;100.00;102475.34;1694800;82;936604;-81
2020/12/02 03:07:00;;;;;;;9.43;5.80;;;;;;;4.31;100.00;102471.31;1705864;82;936858;-80
2020/12/02 03:09:30;;;;;;;9.43;6.03;;;;;;;4.35;100.00;102473.45;1694969;82;934510;-81
2020/12/02 03:11:59;;;;;;;9.03;5.23;;;;;;;4.36;100.00;102466.05;1705869;82;934594;-80
2020/12/02 03:14:30;;;;;;;11.48;5.97;;;;;;;4.39;100.00;102467.01;1694869;82;934552;-80
2020/12/02 03:17:01;;;;;;;8.47;5.63;;;;;;;4.33;100.00;102460.94;1705844;82;936741;-80
2020/12/02 03:19:34;;;;;;;12.23;6.37;;;;;;;4.34;100.00;102456.62;1649523;84;934707;-80
2020/12/02 03:22:07;;;;;;;10.03;5.83;;;;;;;4.18;100.00;102454.22;1660642;84;934765;-80
2020/12/02 03:24:38;;;;;;;11.67;5.57;;;;;;;4.40;100.00;102454.95;1649907;84;936648;-81
2020/12/02 03:27:08;;;;;;;7.80;5.73;;;;;;;4.32;100.00;102451.83;1660331;84;934767;-80
2020/12/02 03:29:38;;;;;;;12.20;6.50;;;;;;;4.39;100.00;102444.48;1649714;84;934551;-80
2020/12/02 03:32:08;;;;;;;10.60;5.27;;;;;;;4.45;100.00;102434.56;1660463;84;934858;-80
2020/12/02 03:34:38;;;;;;;8.27;5.40;;;;;;;4.58;100.00;102438.17;1649921;84;936660;-80
2020/12/02 03:37:08;;;;;;;9.47;5.53;;;;;;;4.44;100.00;102432.86;1660745;84;932844;-80
2020/12/02 03:39:38;;;;;;;9.70;5.97;;;;;;;4.38;100.00;102419.39;1649558;84;934820;-79
2020/12/02 03:42:08;;;;;;;8.47;5.37;;;;;;;4.38;100.00;102432.29;1662762;84;932626;-79
2020/12/02 03:44:38;;;;;;;11.90;5.57;;;;;;;4.47;100.00;102418.67;1649715;84;934524;-79
2020/12/02 03:47:08;;;;;;;7.07;5.67;;;;;;;4.39;100.00;102418.34;1661271;84;934747;-80
2020/12/02 03:49:38;;;;;;;10.90;5.43;;;;;;;4.48;100.00;102406.09;1649500;84;934673;-80
2020/12/02 03:52:08;;;;;;;11.17;6.27;;;;;;;4.31;100.00;102404.77;1660679;84;934742;-80
2020/12/02 03:54:38;;;;;;;10.70;5.73;;;;;;;4.25;100.00;102404.20;1694624;82;936617;-79
2020/12/02 03:57:08;;;;;;;6.67;4.40;;;;;;;4.30;100.00;102408.57;1705750;82;934749;-80
2020/12/02 03:59:38;;;;;;;7.30;5.07;;;;;;;4.38;100.00;102395.15;1694819;82;934589;-80
2020/12/02 04:02:07;;;;;;;8.43;4.87;;;;;;;4.43;100.00;102391.26;1706036;82;932595;-80
2020/12/02 04:04:37;;;;;;;8.67;4.87;;;;;;;4.32;100.00;102394.06;1695214;82;934674;-80
2020/12/02 04:07:07;;;;;;;7.87;4.47;;;;;;;4.32;100.00;102387.74;1705977;82;932909;-80
2020/12/02 04:09:37;;;;;;;9.57;5.27;;;;;;;4.19;100.00;102377.55;1694798;82;934631;-80
2020/12/02 04:12:07;;;;;;;9.83;5.03;;;;;;;4.18;100.00;102376.36;1706042;82;932619;-80
2020/12/02 04:14:37;;;;;;;9.63;4.67;;;;;;;4.28;100.00;102364.45;1695035;82;934845;-80
2020/12/02 04:17:06;;;;;;;6.30;4.73;;;;;;;4.10;100.00;102356.25;1705938;82;932611;-79
2020/12/02 04:19:36;;;;;;;8.00;5.50;;;;;;;4.20;100.00;102361.34;1694833;82;934681;-80
2020/12/02 04:22:06;;;;;;;9.13;5.85;;;;;;;4.22;100.00;102359.77;1705993;82;932751;-80
2020/12/02 04:24:36;;;;;;;9.20;4.97;;;;;;;4.15;100.00;102357.53;1694742;82;934610;-80
2020/12/02 04:27:07;;;;;;;8.03;5.40;;;;;;;4.19;100.00;102361.05;1705995;82;932635;-80
2020/12/02 04:29:37;;;;;;;11.73;5.70;;;;;;;4.15;100.00;102357.53;1694839;82;934514;-80
2020/12/02 04:32:07;;;;;;;9.87;4.87;;;;;;;4.21;100.00;102352.56;1705943;82;934613;-80
2020/12/02 04:34:36;;;;;;;8.10;5.53;;;;;;;4.10;100.00;102350.75;1695010;82;934607;-80
2020/12/02 04:37:06;;;;;;;6.97;5.20;;;;;;;4.25;100.00;102345.07;1706041;82;932918;-80
2020/12/02 04:39:36;;;;;;;7.65;5.20;;;;;;;4.05;100.00;102354.64;1694700;82;935031;-79
2020/12/02 04:42:08;;;;;;;10.87;5.50;;;;;;;4.05;100.00;102345.02;1706123;82;932796;-80
2020/12/02 04:44:38;;;;;;;8.53;4.97;;;;;;;4.04;100.00;102343.84;1694688;82;936761;-80
2020/12/02 04:47:11;;;;;;;12.03;5.30;;;;;;;4.11;100.00;102341.95;1706194;82;932682;-80
2020/12/02 04:49:41;;;;;;;8.47;4.70;;;;;;;4.16;100.00;102346.83;1705963;82;936736;-80
2020/12/02 04:52:14;;;;;;;8.07;5.10;;;;;;;4.15;100.00;102342.41;1706069;82;932578;-80
2020/12/02 04:54:44;;;;;;;9.30;5.47;;;;;;;4.14;100.00;102331.94;1705976;82;934594;-80
2020/12/02 04:57:14;;;;;;;10.57;5.53;;;;;;;4.11;100.00;102329.57;1707275;82;932853;-80
2020/12/02 04:59:45;;;;;;;7.80;4.90;;;;;;;3.99;100.00;102331.23;1706134;82;936668;-80
2020/12/02 05:02:28;;;;;;;9.10;5.15;;;;;;;4.05;100.00;102333.17;1694473;82;934555;-79
2020/12/02 05:04:59;;;;;;;8.57;5.50;;;;;;;4.00;100.00;102324.68;1703027;82;935105;-80
2020/12/02 05:07:30;;;;;;;8.00;5.50;;;;;;;3.97;100.00;102329.23;1694858;82;934675;-80
2020/12/02 05:10:03;;;;;;;9.23;5.60;;;;;;;4.04;100.00;102326.81;1706051;82;934850;-80
2020/12/02 05:12:36;;;;;;;9.43;5.37;;;;;;;3.97;100.00;102314.95;1694877;82;934649;-80
2020/12/02 05:15:17;;;;;;;9.67;5.90;;;;;;;3.97;100.00;102304.48;1706164;82;933069;-80
2020/12/02 05:18:02;;;;;;;10.17;5.47;;;;;;;3.98;100.00;102292.44;1706188;82;934526;-80
2020/12/02 05:20:34;;;;;;;8.77;6.07;;;;;;;4.00;100.00;102287.56;1694942;82;936566;-80
2020/12/02 05:23:11;;;;;;;11.57;5.87;;;;;;;4.00;100.00;102284.82;1706278;82;932689;-80
2020/12/02 05:25:40;;;;;;;12.33;5.87;;;;;;;3.91;100.00;102284.68;1705979;82;936945;-80
2020/12/02 05:28:17;;;;;;;8.70;5.30;;;;;;;3.92;100.00;102281.73;1706044;82;934896;-80
2020/12/02 05:30:48;;;;;;;8.43;6.07;;;;;;;4.10;100.00;102286.13;1706279;82;934590;-80
2020/12/02 05:33:21;;;;;;;8.77;5.77;;;;;;;4.05;100.00;102285.05;1694869;82;934632;-79
2020/12/02 05:35:55;;;;;;;12.03;5.77;;;;;;;4.10;100.00;102286.13;1705966;82;934946;-80
2020/12/02 05:38:33;;;;;;;8.48;5.22;;;;;;;4.18;100.00;102285.61;1694706;82;936792;-80
2020/12/02 05:41:06;;;;;;;12.33;6.23;;;;;;;4.08;100.00;102279.12;1706286;82;932720;-80
2020/12/02 05:43:45;;;;;;;12.30;6.63;;;;;;;4.12;100.00;102279.88;1694936;82;936645;-80
2020/12/02 05:46:21;;;;;;;11.75;6.10;;;;;;;4.22;100.00;102269.86;1702621;82;936904;-79
2020/12/02 05:48:56;;;;;;;13.57;7.30;;;;;;;4.32;100.00;102271.66;1702259;82;936720;-80
2020/12/02 05:51:25;;;;;;;11.80;6.40;;;;;;;4.26;100.00;102273.89;1694619;82;936734;-79
2020/12/02 05:53:59;;;;;;;11.67;6.57;;;;;;;4.33;100.00;102272.51;1706079;82;936669;-80
2020/12/02 05:56:29;;;;;;;13.80;6.83;;;;;;;4.36;100.00;102265.23;1695405;82;936887;-80
2020/12/02 05:58:59;;;;;;;12.87;6.60;;;;;;;4.38;100.00;102273.58;1706290;82;936746;-80
2020/12/02 06:01:31;;;;;;;10.63;7.15;;;;;;;4.33;100.00;102269.75;1695001;82;936800;-79
2020/12/02 06:04:00;;;;;;;9.00;6.60;;;;;;;4.55;100.00;102267.14;1706152;82;936909;-80
2020/12/02 06:06:35;;;;;;;13.18;7.10;;;;;;;4.63;100.00;102259.20;1695015;82;934520;-80
2020/12/02 06:09:07;;;;;;;12.57;7.57;;;;;;;4.61;100.00;102254.45;1706011;82;934832;-80
2020/12/02 06:11:38;;;;;;;12.60;7.33;;;;;;;4.59;100.00;102255.50;1694638;82;936640;-80
2020/12/02 06:14:12;;;;;;;11.17;7.33;;;;;;;4.75;100.00;102259.72;1705932;82;934773;-79
2020/12/02 06:16:45;;;;;;;11.70;7.35;;;;;;;4.81;100.00;102258.03;1705905;82;936784;-80
2020/12/02 06:19:22;;;;;;;11.13;6.83;;;;;;;4.81;100.00;102242.37;1706250;82;935004;-80
2020/12/02 06:21:54;;;;;;;10.27;7.27;;;;;;;4.88;100.00;102250.08;1687375;83;936668;-80
2020/12/02 06:24:46;;;;;;;12.28;8.03;;;;;;;4.99;100.00;102252.73;1690707;82;936633;-80
2020/12/02 06:27:42;;;;;;;13.03;7.57;;;;;;;4.86;100.00;102255.50;1694782;82;936826;-80
2020/12/02 06:30:37;;;;;;;12.18;7.30;;;;;;;5.00;100.00;102247.55;1705833;82;934809;-80
2020/12/02 06:33:18;;;;;;;12.73;7.70;;;;;;;4.80;100.00;102248.08;1706182;82;934852;-80
2020/12/02 06:35:59;;;;;;;11.77;7.93;;;;;;;4.97;100.00;102251.55;1706011;82;936753;-80
2020/12/02 06:38:31;;;;;;;11.53;7.80;;;;;;;4.82;100.00;102254.23;1694705;82;936652;-80
2020/12/02 06:41:28;;;;;;;14.10;8.17;;;;;;;4.93;100.00;102257.70;1705908;82;934790;-79
2020/12/02 06:44:02;;;;;;;10.70;7.20;;;;;;;4.85;100.00;102246.91;1705541;82;936885;-80
2020/12/02 06:47:07;;;;;;;12.75;7.83;;;;;;;4.84;100.00;102253.47;1694970;82;936956;-80
2020/12/02 06:49:38;;;;;;;11.97;7.60;;;;;;;4.84;100.00;102253.47;1692801;82;936667;-79
2020/12/02 06:52:11;;;;;;;11.13;8.30;;;;;;;4.87;100.00;102259.95;1706109;82;935062;-80
2020/12/02 06:54:42;;;;;;;15.70;9.63;;;;;;;5.01;100.00;102255.56;1705936;82;936719;-80
2020/12/02 06:57:20;;;;;;;14.73;8.37;;;;;;;4.98;100.00;102249.65;1706082;82;934859;-80
2020/12/02 06:59:56;;;;;;;13.33;8.07;;;;;;;5.02;100.00;102240.75;1706159;82;936746;-80
2020/12/02 07:02:38;;;;;;;13.35;8.75;;;;;;;4.96;100.00;102245.72;1694797;82;946303;-80
2020/12/02 07:05:10;;;;;;;11.23;8.47;;;;;;;5.02;100.00;102236.62;1706007;82;935000;-80
2020/12/02 07:07:40;;;;;;;13.27;8.60;;;;;;;5.08;100.00;102234.92;1694773;82;936745;-79
2020/12/02 07:10:21;;;;;;;12.53;8.50;;;;;;;4.99;100.00;102232.08;1705846;82;934735;-79
2020/12/02 07:12:56;;;;;;;13.33;8.97;;;;;;;4.99;100.00;102224.66;1706440;82;936673;-81
2020/12/02 07:15:26;;;;;;;12.07;8.58;;;;;;;4.99;100.00;102223.29;1694970;82;936894;-81
2020/12/02 07:17:57;;;;;;;13.90;9.40;;;;;;;4.95;100.00;102221.17;1706108;82;936628;-82
2020/12/02 07:20:28;;;;;;;12.30;8.60;;;;;;;4.86;100.00;102210.07;1693484;82;936644;-82
2020/12/02 07:22:59;;;;;;;13.67;9.13;;;;;;;4.92;100.00;102211.98;1705988;82;936798;-82
2020/12/02 07:25:29;;;;;;;15.20;8.90;;;;;;;4.88;100.00;102196.39;1694793;82;936662;-82
2020/12/02 07:27:59;;;;;;;13.60;8.70;;;;;;;4.91;100.00;102202.02;1705918;82;936752;-82
2020/12/02 07:30:33;;;;;;;13.70;9.40;;;;;;;4.99;100.00;102199.03;1695169;82;936729;-81
2020/12/02 07:33:24;;;;;;;14.53;8.97;;;;;;;4.83;100.00;102196.74;1705962;82;934830;-81
2020/12/02 07:36:15;;;;;;;11.47;8.87;;;;;;;4.83;100.00;102199.50;1706144;82;936900;-81
2020/12/02 07:38:46;;;;;;;11.20;8.50;;;;;;;4.88;100.00;102193.64;1706259;82;936976;-81
2020/12/02 07:41:20;;;;;;;15.55;8.45;;;;;;;4.83;100.00;102187.11;1694633;82;936654;-79
2020/12/02 07:43:51;;;;;;;11.70;9.40;;;;;;;4.84;100.00;102183.27;1705881;82;936754;-82
2020/12/02 07:46:24;;;;;;;13.53;9.43;;;;;;;4.88;100.00;102187.28;1695424;82;936674;-78
2020/12/02 07:48:57;;;;;;;16.33;9.87;;;;;;;4.92;100.00;102181.69;1705969;82;936763;-75
2020/12/02 07:51:29;;;;;;;17.03;9.60;;;;;;;4.91;100.00;102169.83;1695018;82;936761;-78
2020/12/02 07:54:03;;;;;;;16.30;9.77;;;;;;;4.93;100.00;102169.59;1706055;82;936633;-77
2020/12/02 07:56:35;;;;;;;18.00;9.93;;;;;;;4.97;100.00;102162.59;1694813;82;937873;-76
2020/12/02 07:59:10;;;;;;;14.73;8.83;;;;;;;4.96;100.00;102160.92;1706541;82;934807;-76
2020/12/02 08:02:04;;;;;;;12.90;9.27;;;;;;;4.90;100.00;102157.12;1705889;82;936689;-77
2020/12/02 08:04:41;;;;;;;12.30;8.70;;;;;;;4.96;100.00;102159.55;1695007;82;937081;-77
2020/12/02 08:07:14;;;;;;;12.87;8.73;;;;;;;4.94;100.00;102150.11;1705997;82;935024;-78
2020/12/02 08:09:46;;;;;;;13.43;10.33;;;;;;;4.85;100.00;102153.31;1705921;82;936677;-79
2020/12/02 08:12:19;;;;;;;12.43;9.58;;;;;;;4.89;100.00;102154.56;1694691;82;950489;-76
2020/12/02 08:14:51;;;;;;;14.83;10.20;;;;;;;4.96;100.00;102145.22;1706046;82;936948;-78
2020/12/02 08:17:24;;;;;;;15.20;10.10;;;;;;;4.87;100.00;102145.17;1693880;82;938631;-77
2020/12/02 08:19:58;;;;;;;16.40;9.43;;;;;;;4.87;100.00;102139.66;1705683;82;938734;-77
2020/12/02 08:22:33;;;;;;;17.32;9.60;;;;;;;4.88;100.00;102141.86;1694856;82;936664;-79
2020/12/02 08:25:14;;;;;;;12.33;9.90;;;;;;;4.96;100.00;102138.34;1706116;82;934928;-79
2020/12/02 08:27:49;;;;;;;15.03;10.27;;;;;;;4.94;100.00;102139.10;1706315;82;936879;-78
2020/12/02 08:30:24;;;;;;;14.03;9.30;;;;;;;4.97;100.00;102137.81;1694911;82;938704;-79
2020/12/02 08:32:58;;;;;;;13.57;8.87;;;;;;;5.01;100.00;102141.81;1707925;82;936801;-77
2020/12/02 08:35:33;;;;;;;17.07;9.37;;;;;;;5.02;100.00;102142.14;1694839;82;936792;-75
2020/12/02 08:38:03;;;;;;;15.83;9.60;;;;;;;4.95;100.00;102138.05;1706077;82;934772;-76
2020/12/02 08:40:43;;;;;;;14.25;9.88;;;;;;;4.92;100.00;102145.34;1695003;82;936602;-78
2020/12/02 08:43:40;;;;;;;15.10;10.40;;;;;;;4.91;100.00;102132.66;1706039;82;934850;-78
2020/12/02 08:46:23;;;;;;;17.63;10.10;;;;;;;5.13;100.00;102127.71;1706171;82;936888;-78
2020/12/02 08:48:56;;;;;;;15.60;10.43;;;;;;;5.04;100.00;102121.60;1706144;82;938896;-78
2020/12/02 08:51:27;;;;;;;13.17;9.37;;;;;;;4.98;100.00;102131.24;1694866;82;938693;-78
2020/12/02 08:53:57;;;;;;;17.93;10.63;;;;;;;5.22;100.00;102132.44;1706124;82;936758;-78
2020/12/02 08:56:32;;;;;;;17.05;10.70;;;;;;;5.01;100.00;102126.67;1694925;82;938752;-78
2020/12/02 08:59:02;;;;;;;17.70;10.87;;;;;;;5.05;100.00;102128.78;1705687;82;936853;-78
2020/12/02 09:01:32;;;;;;;15.55;10.15;;;;;;;5.25;100.00;102128.71;1694937;82;938712;-78
2020/12/02 09:04:03;;;;;;;17.57;10.80;;;;;;;5.26;100.00;102121.30;1705912;82;937083;-78
2020/12/02 09:06:33;;;;;;;16.45;10.80;;;;;;;5.11;100.00;102122.94;1694886;82;938841;-78
2020/12/02 09:09:03;;;;;;;19.50;10.77;;;;;;;5.17;100.00;102108.30;1705869;82;936754;-78
2020/12/02 09:11:35;;;;;;;14.78;11.33;;;;;;;5.26;100.00;102111.66;1694846;82;938686;-78
2020/12/02 09:14:07;;;;;;;15.23;10.57;;;;;;;5.25;100.00;102117.70;1705923;82;936749;-78
2020/12/02 09:16:39;;;;;;;15.67;11.03;;;;;;;5.27;100.00;102111.94;1694714;82;937801;-78
2020/12/02 09:19:12;;;;;;;18.70;11.13;;;;;;;5.25;100.00;102114.94;1706199;82;937169;-78
2020/12/02 09:21:42;;;;;;;14.67;10.40;;;;;;;5.24;100.00;102106.36;1705788;82;938670;-78
2020/12/02 09:24:12;;;;;;;16.90;10.93;;;;;;;5.26;100.00;102104.20;1706105;82;936969;-78
2020/12/02 09:26:42;;;;;;;16.27;11.63;;;;;;;5.27;100.00;102099.02;1705878;82;938708;-78
2020/12/02 09:29:15;;;;;;;13.17;10.67;;;;;;;5.28;100.00;102085.56;1705928;82;937072;-77
2020/12/02 09:31:45;;;;;;;20.27;10.33;;;;;;;5.35;100.00;102084.98;1705683;82;938956;-78
2020/12/02 09:34:14;;;;;;;15.47;10.87;;;;;;;5.26;100.00;102072.53;1705994;82;936852;-78
2020/12/02 09:36:47;;;;;;;16.63;10.83;;;;;;;5.25;100.00;102065.36;1705840;82;938810;-78
2020/12/02 09:39:16;;;;;;;19.33;10.97;;;;;;;5.38;100.00;102061.67;1694616;82;938877;-77
2020/12/02 09:41:55;;;;;;;14.20;10.10;;;;;;;5.44;100.00;102071.79;1705953;82;938826;-78
2020/12/02 09:44:37;;;;;;;14.07;10.53;;;;;;;5.32;100.00;102064.77;1694434;82;943656;-78
2020/12/02 09:47:10;;;;;;;15.60;9.97;;;;;;;5.37;100.00;102053.94;1705804;82;936673;-78
2020/12/02 09:49:41;;;;;;;18.17;10.48;;;;;;;5.40;100.00;102057.62;1693869;82;1001638;-78
2020/12/02 09:52:51;;;;;;;18.53;10.23;;;;;;;5.49;100.00;102063.18;1706160;82;938916;-77
2020/12/02 09:55:24;;;;;;;13.43;9.48;;;;;;;5.55;100.00;102057.85;1681804;82;938703;-78
2020/12/02 09:57:55;;;;;;;18.07;10.57;;;;;;;5.62;100.00;102049.84;1677495;84;936613;-79
2020/12/02 10:00:25;;;;;;;14.53;9.98;;;;;;;5.55;100.00;102046.83;1694818;82;938979;-79
2020/12/02 10:03:21;;;;;;;17.57;9.83;;;;;;;5.55;100.00;102039.94;1706770;82;936889;-78
2020/12/02 10:06:33;;;;;;;16.30;10.27;;;;;;;5.62;100.00;102030.55;1677754;84;936721;-78
2020/12/02 10:09:25;;;;;;;16.60;10.07;;;;;;;5.58;100.00;102030.69;1705964;82;936946;-79
2020/12/02 10:11:59;;;;;;;13.97;9.53;;;;;;;5.60;100.00;102022.20;1705817;82;938648;-78
2020/12/02 10:14:52;;;;;;;16.82;9.35;;;;;;;5.64;100.00;102022.91;1694697;82;935667;-78
2020/12/02 10:17:54;;;;;;;13.30;8.57;;;;;;;5.69;100.00;102027.19;1667397;84;936594;-79
2020/12/02 10:20:31;;;;;;;18.15;9.38;;;;;;;5.77;100.00;102021.43;1671679;82;945521;-78
2020/12/02 10:23:33;;;;;;;14.20;9.78;;;;;;;5.82;100.00;102009.70;1705754;82;934857;-77
2020/12/02 10:26:56;;;;;;;15.23;9.60;;;;;;;5.88;100.00;102012.97;1706146;82;934894;-78
2020/12/02 10:29:33;;;;;;;16.77;9.28;;;;;;;5.93;100.00;101993.31;1675921;82;936606;-78
2020/12/02 10:32:13;;;;;;;14.00;9.03;;;;;;;5.93;100.00;102002.96;1706054;82;934799;-79
2020/12/02 10:34:45;;;;;;;16.50;10.10;;;;;;;5.92;100.00;101998.51;1705869;82;936749;-78
2020/12/02 10:37:20;;;;;;;15.97;9.93;;;;;;;6.00;100.00;102000.66;1704491;82;938723;-78
2020/12/02 10:39:49;;;;;;;22.07;9.90;;;;;;;5.95;100.00;101980.66;1719922;81;936547;-79
2020/12/02 10:42:28;;;;;;;16.70;9.93;;;;;;;6.07;100.00;101980.23;1694857;82;936881;-78
2020/12/02 10:45:09;;;;;;;19.27;10.23;;;;;;;6.07;100.00;101982.15;1706119;82;936904;-78
2020/12/02 10:48:06;;;;;;;16.03;10.73;;;;;;;6.15;100.00;101970.81;1694633;82;938897;-78
2020/12/02 10:50:38;;;;;;;17.17;9.93;;;;;;;6.25;100.00;101968.34;1694718;82;938823;-79
2020/12/02 10:53:11;;;;;;;17.67;10.67;;;;;;;6.28;100.00;101963.77;1706074;82;934997;-79
2020/12/02 10:55:41;;;;;;;16.57;9.87;;;;;;;6.37;100.00;101967.35;1706002;82;938694;-79
2020/12/02 10:58:17;;;;;;;18.53;9.47;;;;;;;6.43;100.00;101972.50;1705924;82;935075;-79
2020/12/02 11:00:48;;;;;;;18.03;9.63;;;;;;;6.38;100.00;101966.28;1705842;82;936723;-79
2020/12/02 11:03:25;;;;;;;17.07;10.33;;;;;;;6.48;100.00;101957.47;1694603;82;936962;-79
2020/12/02 11:06:02;;;;;;;16.10;9.43;;;;;;;6.52;100.00;101950.41;1705972;82;939044;-79
2020/12/02 11:08:39;;;;;;;15.48;9.38;;;;;;;6.51;100.00;101944.58;1666287;84;936987;-80
2020/12/02 11:11:14;;;;;;;14.47;9.13;;;;;;;6.56;100.00;101936.45;1705971;82;935024;-79
2020/12/02 11:13:49;;;;;;;15.60;8.90;;;;;;;6.71;100.00;101935.52;1705933;82;936905;-79
2020/12/02 11:16:24;;;;;;;16.90;10.07;;;;;;;6.81;100.00;101934.94;1666819;84;936688;-79
2020/12/02 11:19:06;;;;;;;24.17;13.13;;;;;;;6.91;100.00;101926.09;1706079;82;939151;-79
2020/12/02 11:21:47;;;;;;;23.20;14.50;;;;;;;6.91;100.00;101915.89;1694768;82;938969;-79
2020/12/02 11:25:00;;;;;;;23.00;13.63;;;;;;;6.90;100.00;101917.50;1694779;82;938787;-79
2020/12/02 11:27:30;;;;;;;21.20;13.48;;;;;;;7.04;100.00;101913.47;1678188;83;938887;-79
2020/12/02 11:30:00;;;;;;;26.83;16.27;;;;;;;7.11;100.00;101908.67;1672329;83;938851;-79
2020/12/02 11:33:00;;;;;;;19.85;11.35;;;;;;;7.04;100.00;101892.22;1694844;82;938806;-79
2020/12/02 11:35:40;;;;;;;17.70;10.63;;;;;;;7.02;100.00;101881.92;1694919;82;938940;-79
2020/12/02 11:38:13;;;;;;;16.83;10.33;;;;;;;7.09;100.00;101881.30;1705651;82;936810;-79
2020/12/02 11:40:50;;;;;;;14.33;9.70;;;;;;;7.12;100.00;101866.16;1706009;82;938803;-79
2020/12/02 11:43:25;;;;;;;19.30;10.75;;;;;;;7.17;100.00;101860.23;1696250;82;936919;-79